Time;durP1;ratioP1;P1;durP2;ratioP2;P2;SDS_P1;SDS_P2;PMS_P1;PMS_P2;Temp;Humidity;BMP_temperature;BMP_pressure;BME280_temperature;BME280_humidity;BME280_pressure;Samples;Min_cycle;Max_cycle;Signal;HPM_P1;HPM_P2
2022/10/08 00:00:44;;;;;;;1.73;1.63;;;20.90;96.20;;;;;;5053722;28;20827;-64
2022/10/08 00:03:12;;;;;;;1.60;1.50;;;20.90;96.30;;;;;;5053854;28;20929;-64
2022/10/08 00:05:39;;;;;;;2.00;1.67;;;20.80;96.20;;;;;;5053682;28;20454;-63
2022/10/08 00:08:06;;;;;;;2.17;2.00;;;20.80;96.20;;;;;;5053868;28;20447;-64
2022/10/08 00:10:33;;;;;;;4.10;2.03;;;20.80;96.20;;;;;;5053770;28;20511;-63
2022/10/08 00:13:00;;;;;;;1.40;1.30;;;20.80;96.20;;;;;;5053861;28;20539;-64
2022/10/08 00:15:29;;;;;;;3.30;2.27;;;20.80;96.30;;;;;;5053661;28;20502;-64
2022/10/08 00:17:56;;;;;;;1.33;1.33;;;20.80;96.30;;;;;;5053867;28;20817;-64
2022/10/08 00:20:23;;;;;;;2.40;1.80;;;20.70;96.30;;;;;;5053786;28;20453;-64
2022/10/08 00:22:50;;;;;;;2.03;1.37;;;20.70;96.30;;;;;;5053473;28;20485;-63
2022/10/08 00:25:17;;;;;;;3.63;1.83;;;20.80;96.30;;;;;;5053706;28;20535;-65
2022/10/08 00:27:44;;;;;;;3.70;1.83;;;20.70;96.30;;;;;;5053683;28;20463;-64
2022/10/08 00:30:12;;;;;;;1.53;1.43;;;20.70;96.30;;;;;;5053426;28;20920;-64
2022/10/08 00:32:40;;;;;;;1.90;1.40;;;20.70;96.40;;;;;;5053206;28;20445;-64
2022/10/08 00:35:08;;;;;;;1.33;1.33;;;20.70;96.40;;;;;;5053216;28;20867;-65
2022/10/08 00:37:35;;;;;;;2.10;1.90;;;20.70;96.40;;;;;;5053636;28;20536;-65
2022/10/08 00:40:02;;;;;;;1.93;1.73;;;20.70;96.40;;;;;;5053442;28;20787;-66
2022/10/08 00:42:28;;;;;;;1.60;1.50;;;20.70;96.40;;;;;;5053136;28;20576;-65
2022/10/08 00:44:58;;;;;;;1.70;1.60;;;20.70;96.40;;;;;;5053302;28;20476;-65
2022/10/08 00:47:38;;;;;;;4.33;2.00;;;20.70;96.70;;;;;;5053431;28;20440;-65
2022/10/08 00:50:10;;;;;;;1.63;1.53;;;20.70;96.50;;;;;;5053149;28;20547;-65
2022/10/08 00:52:42;;;;;;;1.87;1.77;;;20.70;96.40;;;;;;5053031;28;20521;-65
2022/10/08 00:55:10;;;;;;;0.97;0.97;;;20.60;96.40;;;;;;5053114;28;20456;-64
2022/10/08 00:57:38;;;;;;;2.40;2.03;;;20.60;96.40;;;;;;5053140;28;20487;-65
2022/10/08 01:00:07;;;;;;;2.73;1.80;;;20.60;96.40;;;;;;5052946;28;20460;-65
2022/10/08 01:02:34;;;;;;;1.97;1.87;;;20.60;96.50;;;;;;5052748;28;21278;-65
2022/10/08 01:05:03;;;;;;;1.87;1.70;;;20.60;96.50;;;;;;5052860;28;20448;-65
2022/10/08 01:07:39;;;;;;;1.47;1.37;;;20.60;96.50;;;;;;5052917;28;20452;-65
2022/10/08 01:10:15;;;;;;;1.50;1.40;;;20.60;96.60;;;;;;5052667;28;20518;-66
2022/10/08 01:12:49;;;;;;;2.60;1.60;;;20.60;96.90;;;;;;5051648;28;20526;-65
2022/10/08 01:15:23;;;;;;;1.50;1.30;;;20.50;96.60;;;;;;5052723;28;20902;-65
2022/10/08 01:18:03;;;;;;;2.10;1.30;;;20.60;97.00;;;;;;5052739;28;20436;-65
2022/10/08 01:20:44;;;;;;;1.50;1.40;;;20.50;96.60;;;;;;5052670;28;20471;-65
2022/10/08 01:23:36;;;;;;;1.57;1.30;;;20.50;96.70;;;;;;5052091;28;20451;-65
2022/10/08 01:26:17;;;;;;;5.10;2.83;;;20.50;96.70;;;;;;5023678;28;20440;-65
2022/10/08 01:28:52;;;;;;;2.23;2.03;;;20.50;96.70;;;;;;5052689;28;20861;-65
2022/10/08 01:31:23;;;;;;;2.20;1.47;;;20.50;96.70;;;;;;5052396;28;20574;-65
2022/10/08 01:33:55;;;;;;;1.13;1.13;;;20.50;96.80;;;;;;5051933;28;20454;-65
2022/10/08 01:36:23;;;;;;;1.67;1.13;;;20.50;96.80;;;;;;5052384;28;20444;-64
2022/10/08 01:38:54;;;;;;;1.33;1.20;;;20.50;96.80;;;;;;5052277;28;20471;-65
2022/10/08 01:41:24;;;;;;;2.13;1.50;;;20.50;96.80;;;;;;5051929;28;20985;-66
2022/10/08 01:43:59;;;;;;;1.30;1.30;;;20.50;96.80;;;;;;5051918;28;20925;-64
2022/10/08 01:46:29;;;;;;;1.63;1.33;;;20.50;96.80;;;;;;5052218;28;20476;-65
2022/10/08 01:49:00;;;;;;;1.40;1.40;;;20.40;96.80;;;;;;5052120;28;20440;-65
2022/10/08 01:51:32;;;;;;;2.10;1.70;;;20.40;96.80;;;;;;5051878;28;20487;-65
2022/10/08 01:54:02;;;;;;;5.07;1.60;;;20.40;96.80;;;;;;5051892;28;21054;-64
2022/10/08 01:56:31;;;;;;;1.70;1.20;;;20.40;96.80;;;;;;5052072;28;20743;-65
2022/10/08 01:59:04;;;;;;;1.27;1.27;;;20.40;96.80;;;;;;5052031;28;20475;-65
2022/10/08 02:01:38;;;;;;;1.60;1.50;;;20.40;96.80;;;;;;5051802;28;20480;-66
2022/10/08 02:06:55;;;;;;;1.10;1.10;;;20.40;96.90;;;;;;5052020;28;20482;-65
2022/10/08 02:09:23;;;;;;;1.53;1.30;;;20.40;96.90;;;;;;5051943;28;20543;-65
2022/10/08 02:11:50;;;;;;;1.57;1.30;;;20.40;96.90;;;;;;5051354;28;20476;-65
2022/10/08 02:14:20;;;;;;;1.80;1.70;;;20.30;96.90;;;;;;5051428;28;20484;-65
2022/10/08 02:16:52;;;;;;;1.77;1.60;;;20.30;96.90;;;;;;5051773;28;20448;-65
2022/10/08 02:19:25;;;;;;;1.33;1.23;;;20.40;97.00;;;;;;5051791;28;20527;-64
2022/10/08 02:21:55;;;;;;;2.00;1.70;;;20.30;96.90;;;;;;5051456;28;20566;-65
2022/10/08 02:24:27;;;;;;;1.57;1.40;;;20.30;96.90;;;;;;5051407;28;20450;-65
2022/10/08 02:26:58;;;;;;;1.10;1.10;;;20.30;96.90;;;;;;5051657;28;20451;-66
2022/10/08 02:29:32;;;;;;;1.50;1.40;;;20.30;97.00;;;;;;5051548;28;20470;-65
2022/10/08 02:32:06;;;;;;;1.90;1.40;;;20.30;97.00;;;;;;5051305;28;20758;-65
2022/10/08 02:34:38;;;;;;;1.50;1.40;;;20.30;97.00;;;;;;5051398;28;20452;-65
2022/10/08 02:37:09;;;;;;;1.50;1.50;;;20.30;97.00;;;;;;5051544;28;20531;-66
2022/10/08 02:39:39;;;;;;;1.30;1.30;;;20.30;97.40;;;;;;5051908;28;20563;-65
2022/10/08 02:42:10;;;;;;;1.50;1.40;;;20.30;97.00;;;;;;5051282;28;20441;-66
2022/10/08 02:44:42;;;;;;;2.00;1.90;;;20.30;97.00;;;;;;5051178;28;20529;-65
2022/10/08 02:47:13;;;;;;;1.20;1.20;;;20.30;97.00;;;;;;5051410;28;20544;-65
2022/10/08 02:49:43;;;;;;;1.40;1.20;;;20.30;97.00;;;;;;5051479;28;20555;-65
2022/10/08 02:52:12;;;;;;;1.30;1.30;;;20.30;97.00;;;;;;5051083;28;20988;-65
2022/10/08 02:54:42;;;;;;;1.40;1.30;;;20.30;97.00;;;;;;5051312;28;20938;-65
2022/10/08 02:57:14;;;;;;;1.37;1.37;;;20.20;97.00;;;;;;5051302;28;20476;-65
2022/10/08 02:59:43;;;;;;;1.67;1.50;;;20.30;97.00;;;;;;5051327;28;20478;-66
2022/10/08 03:02:15;;;;;;;1.80;1.30;;;20.30;97.10;;;;;;5051059;28;20820;-66
2022/10/08 03:04:48;;;;;;;1.40;1.00;;;20.20;97.00;;;;;;5051247;28;20455;-65
2022/10/08 03:07:15;;;;;;;1.50;1.40;;;20.30;97.10;;;;;;5051252;28;20444;-65
2022/10/08 03:09:45;;;;;;;1.07;1.07;;;20.20;97.10;;;;;;5051264;28;20909;-65
2022/10/08 03:12:12;;;;;;;1.10;1.00;;;20.20;97.10;;;;;;5050994;28;20516;-64
2022/10/08 03:14:42;;;;;;;2.07;1.77;;;20.20;97.10;;;;;;5051053;28;20878;-65
2022/10/08 03:17:13;;;;;;;1.57;1.03;;;20.20;97.10;;;;;;5051160;28;20456;-66
2022/10/08 03:19:40;;;;;;;1.00;1.00;;;20.20;97.20;;;;;;5051068;28;20467;-66
2022/10/08 03:22:07;;;;;;;1.00;1.00;;;20.20;97.20;;;;;;5050867;28;20445;-66
2022/10/08 03:24:35;;;;;;;1.27;1.27;;;20.20;97.20;;;;;;5051007;28;20440;-65
2022/10/08 03:27:02;;;;;;;1.63;1.53;;;20.20;97.20;;;;;;5051005;28;20459;-66
2022/10/08 03:29:29;;;;;;;1.53;1.40;;;20.20;97.20;;;;;;5050898;28;20464;-65
2022/10/08 03:31:57;;;;;;;1.47;1.47;;;20.20;97.20;;;;;;5050764;28;21082;-65
2022/10/08 03:34:25;;;;;;;1.10;1.00;;;20.20;97.20;;;;;;5050777;28;20539;-64
2022/10/08 03:36:51;;;;;;;2.07;1.90;;;20.20;97.20;;;;;;5054679;28;20871;-65
2022/10/08 03:39:18;;;;;;;1.70;1.50;;;20.20;97.30;;;;;;5054405;28;20458;-65
2022/10/08 03:41:45;;;;;;;1.40;1.30;;;20.10;97.30;;;;;;5054240;28;20950;-65
2022/10/08 03:44:12;;;;;;;1.77;1.70;;;20.20;97.30;;;;;;5054335;28;20483;-65
2022/10/08 03:46:39;;;;;;;1.53;1.43;;;20.20;97.30;;;;;;5054502;28;20878;-65
2022/10/08 03:49:07;;;;;;;2.77;1.30;;;20.10;97.30;;;;;;5054185;28;20452;-65
2022/10/08 03:51:34;;;;;;;1.10;1.00;;;20.20;97.30;;;;;;5054379;28;20853;-65
2022/10/08 03:54:01;;;;;;;1.60;1.30;;;20.10;97.30;;;;;;5054244;28;20919;-65
2022/10/08 03:56:27;;;;;;;1.77;1.67;;;20.10;97.30;;;;;;5054347;28;20528;-66
2022/10/08 03:58:56;;;;;;;1.20;1.10;;;20.10;97.30;;;;;;5054000;28;20440;-66
2022/10/08 04:01:24;;;;;;;1.40;1.30;;;20.10;97.40;;;;;;5054089;28;20555;-64
2022/10/08 04:03:51;;;;;;;1.60;1.50;;;20.10;97.40;;;;;;5054040;28;20483;-65
2022/10/08 04:06:19;;;;;;;1.27;1.17;;;20.10;97.40;;;;;;5054245;28;20448;-65
2022/10/08 04:08:46;;;;;;;0.90;0.90;;;20.10;97.30;;;;;;5054111;28;20444;-65
2022/10/08 04:11:14;;;;;;;1.30;1.20;;;20.10;97.40;;;;;;5053881;28;20484;-65
2022/10/08 04:13:42;;;;;;;1.30;1.30;;;20.10;97.40;;;;;;5053884;28;20825;-65
2022/10/08 04:16:12;;;;;;;1.33;1.23;;;20.10;97.40;;;;;;5053954;28;20539;-65
2022/10/08 04:18:39;;;;;;;1.73;1.33;;;20.10;97.40;;;;;;5053905;28;20941;-65
2022/10/08 04:21:08;;;;;;;0.90;0.90;;;20.10;97.40;;;;;;5053499;28;20464;-65
2022/10/08 04:23:38;;;;;;;1.80;1.43;;;20.10;97.40;;;;;;5053755;28;20444;-65
2022/10/08 04:26:05;;;;;;;1.37;1.37;;;20.10;97.30;;;;;;5053656;28;20535;-65
2022/10/08 04:28:33;;;;;;;0.70;0.70;;;20.10;97.40;;;;;;5053569;28;20451;-65
2022/10/08 04:31:01;;;;;;;0.83;0.83;;;20.10;97.40;;;;;;5053486;28;20496;-65
2022/10/08 04:33:29;;;;;;;2.07;1.67;;;20.10;97.30;;;;;;5053505;28;20548;-65
2022/10/08 04:35:56;;;;;;;2.73;1.20;;;20.10;97.30;;;;;;5053553;28;20533;-64
2022/10/08 04:38:23;;;;;;;1.37;1.37;;;20.10;97.50;;;;;;5053314;28;20459;-65
2022/10/08 04:41:03;;;;;;;1.00;1.00;;;20.10;97.60;;;;;;5053265;28;20486;-65
2022/10/08 04:43:30;;;;;;;1.63;1.53;;;20.10;97.70;;;;;;5053303;28;20440;-65
2022/10/08 04:45:56;;;;;;;1.10;1.10;;;20.10;97.80;;;;;;5053352;28;20926;-65
2022/10/08 04:48:23;;;;;;;1.47;1.37;;;20.00;98.20;;;;;;5053068;28;20487;-65
2022/10/08 04:50:54;;;;;;;1.37;1.20;;;20.10;97.90;;;;;;5053111;28;20470;-64
2022/10/08 04:53:21;;;;;;;2.20;1.33;;;20.00;97.90;;;;;;5053105;28;20567;-64
2022/10/08 04:55:48;;;;;;;1.00;1.00;;;20.00;97.90;;;;;;5053313;28;20524;-65
2022/10/08 04:58:16;;;;;;;0.97;0.97;;;20.00;98.00;;;;;;5052885;28;20469;-65
2022/10/08 05:00:43;;;;;;;1.53;1.43;;;20.00;97.90;;;;;;5052935;28;20547;-65
2022/10/08 05:03:10;;;;;;;1.60;1.50;;;20.00;97.90;;;;;;5052882;28;20528;-65
2022/10/08 05:05:39;;;;;;;1.13;1.13;;;20.00;98.00;;;;;;5053070;28;20444;-64
2022/10/08 05:08:06;;;;;;;2.73;1.70;;;20.00;97.90;;;;;;5052592;28;20559;-66
2022/10/08 05:10:33;;;;;;;1.63;1.17;;;20.00;98.00;;;;;;5052712;28;20525;-65
2022/10/08 05:13:00;;;;;;;0.93;0.93;;;20.00;98.00;;;;;;5052693;28;20516;-65
2022/10/08 05:15:28;;;;;;;3.40;1.43;;;20.00;98.00;;;;;;5052609;28;20443;-64
2022/10/08 05:17:55;;;;;;;1.20;1.20;;;20.00;98.10;;;;;;5052551;28;20449;-64
2022/10/08 05:20:22;;;;;;;0.90;0.90;;;20.00;98.10;;;;;;5052638;28;20507;-65
2022/10/08 05:22:49;;;;;;;1.20;1.10;;;19.90;98.10;;;;;;5052509;28;20440;-66
2022/10/08 05:25:16;;;;;;;1.10;1.00;;;19.90;98.00;;;;;;5052705;28;20850;-65
2022/10/08 05:27:43;;;;;;;1.20;1.20;;;20.00;98.20;;;;;;5052302;28;20922;-65
2022/10/08 05:30:11;;;;;;;1.93;1.23;;;20.00;98.20;;;;;;5052363;28;20471;-65
2022/10/08 05:32:39;;;;;;;2.23;1.40;;;19.90;98.00;;;;;;5052360;28;20849;-65
2022/10/08 05:35:07;;;;;;;1.20;1.13;;;19.90;98.20;;;;;;5052670;28;20586;-65
2022/10/08 05:37:33;;;;;;;1.10;1.00;;;19.90;98.20;;;;;;5052181;28;20444;-65
2022/10/08 05:40:00;;;;;;;1.33;1.23;;;19.90;98.30;;;;;;5052241;28;20479;-65
2022/10/08 05:42:27;;;;;;;1.17;1.17;;;19.90;98.20;;;;;;5052099;28;20870;-64
2022/10/08 05:44:54;;;;;;;1.10;1.10;;;19.90;98.30;;;;;;5052307;28;20472;-65
2022/10/08 05:47:21;;;;;;;1.20;1.17;;;19.90;98.30;;;;;;5052044;28;20532;-66
2022/10/08 05:49:49;;;;;;;2.10;1.33;;;19.90;98.00;;;;;;5052072;28;20460;-65
2022/10/08 05:52:16;;;;;;;1.23;1.10;;;19.90;98.20;;;;;;5052681;28;20488;-64
2022/10/08 05:54:43;;;;;;;1.10;0.90;;;19.90;99.90;;;;;;5053096;28;20480;-63
2022/10/08 05:57:09;;;;;;;1.23;1.07;;;19.90;99.90;;;;;;5051918;28;20476;-63
2022/10/08 05:59:36;;;;;;;2.87;1.30;;;20.00;99.90;;;;;;5052258;28;20466;-64
2022/10/08 06:02:03;;;;;;;2.97;2.77;;;19.90;99.90;;;;;;5053298;28;20519;-63
2022/10/08 06:04:30;;;;;;;1.37;1.20;;;20.00;99.90;;;;;;5052242;28;20448;-63
2022/10/08 06:06:59;;;;;;;1.40;1.30;;;20.00;99.90;;;;;;5051746;28;20483;-65
2022/10/08 06:09:25;;;;;;;1.50;1.40;;;20.00;99.90;;;;;;5052857;28;20924;-68
2022/10/08 06:11:52;;;;;;;1.47;1.37;;;20.00;99.90;;;;;;5051763;28;20512;-68
2022/10/08 06:14:19;;;;;;;1.27;1.20;;;20.00;99.90;;;;;;5052219;28;20531;-67
2022/10/08 06:16:46;;;;;;;1.20;1.10;;;19.90;99.90;;;;;;5052722;28;20766;-68
2022/10/08 06:19:14;;;;;;;1.47;1.30;;;20.00;99.90;;;;;;5051777;28;20543;-66
2022/10/08 06:21:40;;;;;;;0.77;0.77;;;20.00;99.90;;;;;;5051916;28;20470;-68
2022/10/08 06:24:11;;;;;;;1.00;1.00;;;20.00;99.90;;;;;;5051452;28;20479;-68
2022/10/08 06:26:39;;;;;;;1.87;1.27;;;20.00;99.90;;;;;;5051564;28;20446;-66
2022/10/08 06:29:08;;;;;;;1.27;1.10;;;20.00;99.90;;;;;;5051773;28;20492;-67
2022/10/08 06:31:35;;;;;;;1.70;1.00;;;20.00;99.90;;;;;;5050871;28;20427;-67
2022/10/08 06:34:03;;;;;;;2.30;0.97;;;20.10;99.90;;;;;;5051545;28;20546;-65
2022/10/08 06:36:31;;;;;;;2.60;1.60;;;20.10;99.90;;;;;;5053670;28;20475;-67
2022/10/08 06:38:59;;;;;;;1.17;1.17;;;20.20;99.90;;;;;;5053022;28;20445;-64
2022/10/08 06:41:32;;;;;;;1.97;1.27;;;20.20;99.90;;;;;;5051285;28;20455;-64
2022/10/08 06:43:58;;;;;;;2.00;1.10;;;20.20;99.90;;;;;;5051927;28;20454;-66
2022/10/08 06:46:25;;;;;;;2.20;2.10;;;20.20;99.90;;;;;;5055525;28;20480;-65
2022/10/08 06:48:52;;;;;;;3.20;2.00;;;20.20;99.90;;;;;;5054958;28;20450;-66
2022/10/08 06:51:19;;;;;;;3.90;1.90;;;20.20;99.20;;;;;;5052960;28;20519;-64
2022/10/08 06:53:52;;;;;;;5.80;2.43;;;20.20;99.90;;;;;;5051608;28;20516;-64
2022/10/08 06:56:19;;;;;;;2.20;2.10;;;20.20;99.90;;;;;;5051456;28;20532;-67
2022/10/08 06:58:48;;;;;;;2.10;1.90;;;20.30;99.90;;;;;;5051861;28;20445;-67
2022/10/08 07:01:17;;;;;;;1.80;1.67;;;20.20;99.80;;;;;;5052399;28;20530;-68
2022/10/08 07:03:44;;;;;;;1.70;1.60;;;20.20;99.70;;;;;;5051520;28;20950;-69
2022/10/08 07:06:12;;;;;;;1.87;1.73;;;20.20;99.80;;;;;;5051369;28;20455;-70
2022/10/08 07:08:39;;;;;;;1.70;1.60;;;20.20;99.80;;;;;;5051591;28;20527;-68
2022/10/08 07:11:08;;;;;;;2.43;1.97;;;20.20;99.80;;;;;;5055146;28;20571;-71
2022/10/08 07:13:36;;;;;;;2.07;1.93;;;20.20;99.80;;;;;;5055991;28;20840;-68
2022/10/08 07:16:05;;;;;;;1.87;1.63;;;20.20;99.90;;;;;;5057504;28;20443;-65
2022/10/08 07:18:34;;;;;;;1.50;1.40;;;20.30;99.90;;;;;;5055696;28;20529;-66
2022/10/08 07:21:01;;;;;;;1.83;1.73;;;20.30;99.90;;;;;;5055565;28;20525;-71
2022/10/08 07:23:29;;;;;;;1.80;1.40;;;20.20;99.90;;;;;;5054161;28;20440;-70
2022/10/08 07:25:57;;;;;;;2.70;1.70;;;20.30;99.90;;;;;;5054936;28;20455;-66
2022/10/08 07:28:26;;;;;;;2.27;1.67;;;20.20;99.90;;;;;;5055228;28;20837;-65
2022/10/08 07:30:53;;;;;;;6.60;2.83;;;20.30;99.90;;;;;;5054834;28;20587;-70
2022/10/08 07:33:21;;;;;;;1.90;1.70;;;20.30;99.90;;;;;;5054209;28;21008;-69
2022/10/08 07:35:48;;;;;;;1.57;1.30;;;20.30;99.90;;;;;;5054825;28;20440;-70
2022/10/08 07:38:18;;;;;;;1.70;1.60;;;20.30;99.90;;;;;;5054944;28;20445;-69
2022/10/08 07:40:47;;;;;;;2.50;1.60;;;20.30;99.90;;;;;;5054264;28;20563;-68
2022/10/08 07:43:14;;;;;;;1.73;1.53;;;20.30;99.90;;;;;;5055713;28;20447;-70
2022/10/08 07:45:45;;;;;;;4.00;1.57;;;20.30;99.90;;;;;;5054867;28;20471;-70
2022/10/08 07:48:11;;;;;;;2.57;2.00;;;20.30;99.90;;;;;;5054508;28;20460;-70
2022/10/08 07:50:40;;;;;;;0.80;0.80;;;20.30;99.90;;;;;;5054606;28;20968;-71
2022/10/08 07:53:07;;;;;;;2.23;2.03;;;20.30;99.90;;;;;;5054273;28;20575;-70
2022/10/08 07:55:34;;;;;;;1.70;1.60;;;20.30;99.90;;;;;;5053943;28;20531;-71
2022/10/08 07:58:00;;;;;;;2.00;1.17;;;20.30;99.90;;;;;;5054298;28;20527;-70
2022/10/08 08:00:27;;;;;;;1.30;1.30;;;20.30;99.90;;;;;;5054341;28;20498;-68
2022/10/08 08:02:54;;;;;;;2.90;2.60;;;20.30;99.80;;;;;;5055355;28;20527;-69
2022/10/08 08:05:21;;;;;;;1.50;1.20;;;20.30;99.80;;;;;;5055604;28;20444;-66
2022/10/08 08:07:49;;;;;;;1.37;1.20;;;20.30;99.80;;;;;;5056829;28;20531;-68
2022/10/08 08:10:16;;;;;;;1.30;1.30;;;20.40;99.90;;;;;;5054610;28;20500;-66
2022/10/08 08:12:44;;;;;;;1.23;1.13;;;20.40;99.90;;;;;;5054743;28;20510;-68
2022/10/08 08:15:11;;;;;;;1.60;1.50;;;20.40;99.90;;;;;;5053818;28;20448;-68
2022/10/08 08:17:38;;;;;;;1.10;1.10;;;20.40;99.90;;;;;;5053888;28;20449;-68
2022/10/08 08:20:05;;;;;;;1.43;1.43;;;20.50;99.90;;;;;;5053677;28;20997;-69
2022/10/08 08:22:32;;;;;;;1.80;1.70;;;20.50;99.80;;;;;;5053324;28;20877;-68
2022/10/08 08:25:00;;;;;;;2.30;2.10;;;20.50;99.90;;;;;;5052795;28;20450;-64
2022/10/08 08:27:29;;;;;;;5.47;1.67;;;20.50;99.90;;;;;;5053486;28;20562;-63
2022/10/08 08:29:55;;;;;;;2.07;1.50;;;20.50;99.90;;;;;;5053652;28;20558;-63
2022/10/08 08:32:22;;;;;;;2.37;2.10;;;20.50;99.90;;;;;;5053399;28;20479;-63
2022/10/08 08:34:49;;;;;;;1.70;1.40;;;20.50;99.90;;;;;;5053245;28;20535;-63
2022/10/08 08:37:16;;;;;;;2.33;2.00;;;20.50;99.90;;;;;;5053605;28;20488;-63
2022/10/08 08:39:43;;;;;;;2.33;1.80;;;20.50;99.90;;;;;;5075160;22;20528;-67
2022/10/08 08:42:39;;;;;;;1.73;1.63;;;20.50;99.90;;;;;;5053560;28;20465;-67
2022/10/08 08:45:18;;;;;;;1.60;1.50;;;20.50;99.90;;;;;;5054562;28;20531;-68
2022/10/08 08:47:59;;;;;;;2.90;2.10;;;20.50;99.90;;;;;;5054009;28;20444;-68
2022/10/08 08:50:30;;;;;;;3.27;1.80;;;20.50;99.90;;;;;;5062815;28;20459;-69
2022/10/08 08:52:57;;;;;;;3.60;1.80;;;20.50;99.90;;;;;;5078574;28;21039;-67
2022/10/08 08:55:34;;;;;;;2.60;1.77;;;20.60;99.90;;;;;;5077230;28;20458;-68
2022/10/08 08:58:11;;;;;;;1.97;1.87;;;20.60;99.90;;;;;;5074014;28;20446;-68
2022/10/08 09:00:41;;;;;;;2.93;1.90;;;20.60;99.90;;;;;;5073869;28;20872;-69
2022/10/08 09:03:16;;;;;;;1.50;1.40;;;20.60;99.90;;;;;;5071832;28;21023;-69
2022/10/08 09:05:46;;;;;;;2.67;2.03;;;20.60;99.90;;;;;;5074099;28;20807;-67
2022/10/08 09:08:17;;;;;;;1.70;1.60;;;20.50;99.90;;;;;;5073638;28;20467;-69
2022/10/08 09:10:48;;;;;;;2.03;1.50;;;20.50;99.90;;;;;;5069449;28;20476;-66
2022/10/08 09:13:21;;;;;;;1.40;1.30;;;20.60;99.90;;;;;;5053634;28;20898;-67
2022/10/08 09:15:47;;;;;;;3.30;2.37;;;20.60;99.90;;;;;;5054042;28;20444;-66
2022/10/08 09:18:16;;;;;;;5.00;2.57;;;20.60;99.90;;;;;;5053772;28;20543;-67
2022/10/08 09:20:43;;;;;;;4.33;2.23;;;20.50;99.90;;;;;;5056939;28;20824;-67
2022/10/08 09:23:17;;;;;;;3.90;3.00;;;20.60;99.90;;;;;;5073562;28;20785;-65
2022/10/08 09:25:49;;;;;;;4.23;2.40;;;20.50;99.90;;;;;;5074077;28;20440;-67
2022/10/08 09:28:38;;;;;;;1.90;1.80;;;20.50;99.90;;;;;;5073953;28;20454;-66
2022/10/08 09:31:13;;;;;;;5.43;2.17;;;20.50;99.90;;;;;;5071950;28;20524;-66
2022/10/08 09:33:40;;;;;;;2.77;2.57;;;20.50;99.90;;;;;;5072437;28;20544;-66
2022/10/08 09:36:07;;;;;;;2.07;1.93;;;20.50;99.90;;;;;;5073482;28;20450;-68
2022/10/08 09:38:36;;;;;;;2.47;2.10;;;20.50;99.90;;;;;;5073210;28;20440;-67
2022/10/08 09:41:06;;;;;;;1.90;1.80;;;20.60;99.90;;;;;;5067661;28;20834;-68
2022/10/08 09:43:35;;;;;;;2.90;2.20;;;20.60;99.90;;;;;;5052810;28;20440;-65
2022/10/08 09:46:10;;;;;;;5.23;2.80;;;20.50;99.90;;;;;;5052826;28;20448;-67
2022/10/08 09:48:38;;;;;;;3.17;2.53;;;20.60;99.90;;;;;;5053468;28;20444;-68
2022/10/08 09:51:12;;;;;;;5.03;3.27;;;20.60;99.90;;;;;;5058050;28;20549;-68
2022/10/08 09:53:41;;;;;;;3.20;2.90;;;20.60;99.90;;;;;;5073953;28;20843;-67
2022/10/08 09:56:10;;;;;;;2.43;2.33;;;20.60;99.90;;;;;;5073662;28;20475;-68
2022/10/08 09:58:49;;;;;;;3.83;3.40;;;20.50;99.90;;;;;;5074395;28;20467;-68
2022/10/08 10:01:17;;;;;;;3.80;3.37;;;20.50;99.90;;;;;;5069593;28;20832;-69
2022/10/08 10:03:48;;;;;;;3.57;3.27;;;20.60;99.90;;;;;;5055260;28;20805;-69
2022/10/08 10:06:15;;;;;;;4.80;3.10;;;20.60;99.90;;;;;;5053938;28;20520;-70
2022/10/08 10:08:52;;;;;;;11.90;3.90;;;20.60;99.90;;;;;;5053528;28;20447;-68
2022/10/08 10:11:25;;;;;;;3.37;3.07;;;20.60;99.90;;;;;;5059583;28;20867;-68
2022/10/08 10:13:55;;;;;;;3.53;3.00;;;20.70;99.90;;;;;;5072201;28;20479;-68
2022/10/08 10:16:26;;;;;;;3.00;2.80;;;20.70;99.90;;;;;;5072810;28;20534;-67
2022/10/08 10:18:57;;;;;;;3.40;2.70;;;20.70;99.90;;;;;;5072730;28;20450;-68
2022/10/08 10:21:33;;;;;;;3.33;2.70;;;20.70;99.90;;;;;;5053021;28;20559;-65
2022/10/08 10:24:25;;;;;;;4.07;2.67;;;20.80;99.90;;;;;;5058147;28;20455;-66
2022/10/08 10:26:55;;;;;;;2.83;2.20;;;20.70;99.90;;;;;;5052957;28;20441;-67
2022/10/08 10:29:28;;;;;;;2.43;2.33;;;20.80;99.90;;;;;;5056274;28;20519;-70
2022/10/08 10:32:00;;;;;;;2.93;2.83;;;20.80;99.90;;;;;;5072955;28;20435;-69
2022/10/08 10:34:30;;;;;;;2.17;2.07;;;20.70;99.90;;;;;;5072662;28;20570;-69
2022/10/08 10:37:00;;;;;;;2.57;2.30;;;20.80;99.90;;;;;;5072659;28;20486;-70
2022/10/08 10:39:38;;;;;;;2.40;2.20;;;20.80;99.90;;;;;;5068181;28;20571;-71
2022/10/08 10:42:14;;;;;;;2.57;2.37;;;20.80;99.90;;;;;;5056326;28;20524;-70
2022/10/08 10:44:51;;;;;;;1.67;1.60;;;20.80;99.90;;;;;;5069159;28;20478;-69
2022/10/08 10:47:20;;;;;;;4.60;2.87;;;20.80;99.90;;;;;;5076947;28;20443;-70
2022/10/08 10:49:47;;;;;;;4.03;2.30;;;20.80;99.90;;;;;;5065721;28;20464;-69
2022/10/08 10:52:41;;;;;;;3.40;2.17;;;20.80;99.90;;;;;;5055630;28;20526;-75
2022/10/08 10:55:21;;;;;;;4.80;3.13;;;20.90;99.90;;;;;;5055542;28;20571;-70
2022/10/08 10:58:09;;;;;;;2.50;2.40;;;20.80;99.90;;;;;;5055664;28;20444;-68
2022/10/08 11:00:48;;;;;;;2.07;1.87;;;20.80;99.90;;;;;;5071370;28;20467;-69
2022/10/08 11:03:23;;;;;;;1.93;1.83;;;20.80;99.90;;;;;;5075442;28;20446;-68
2022/10/08 11:05:56;;;;;;;2.87;1.87;;;20.80;99.90;;;;;;5075598;28;20449;-70
2022/10/08 11:08:33;;;;;;;2.93;2.43;;;20.80;99.90;;;;;;5075673;28;20534;-69
2022/10/08 11:11:14;;;;;;;2.00;1.83;;;20.80;99.90;;;;;;5069171;28;20474;-68
2022/10/08 11:14:04;;;;;;;3.40;1.87;;;20.80;99.90;;;;;;5075165;28;20474;-68
2022/10/08 11:16:46;;;;;;;2.03;1.87;;;20.80;99.90;;;;;;5075187;28;20447;-68
2022/10/08 11:19:26;;;;;;;2.40;2.30;;;20.80;99.90;;;;;;5070974;28;20893;-69
2022/10/08 11:22:03;;;;;;;2.10;1.90;;;20.80;99.90;;;;;;5055065;28;20531;-68
2022/10/08 11:24:50;;;;;;;2.40;2.00;;;20.80;99.90;;;;;;5054969;28;20435;-68
2022/10/08 11:27:26;;;;;;;1.80;1.67;;;20.80;99.90;;;;;;5056834;28;20543;-68
2022/10/08 11:30:00;;;;;;;1.77;1.67;;;20.80;99.90;;;;;;5075023;28;20546;-69
2022/10/08 11:32:29;;;;;;;2.00;1.90;;;20.80;99.90;;;;;;5074774;28;20811;-69
2022/10/08 11:35:07;;;;;;;1.67;1.57;;;20.80;99.90;;;;;;5075010;28;20486;-68
2022/10/08 11:37:42;;;;;;;1.60;1.50;;;20.80;99.90;;;;;;5070889;28;20539;-69
2022/10/08 11:40:19;;;;;;;1.53;1.43;;;20.80;99.90;;;;;;5054761;28;20467;-70
2022/10/08 11:42:53;;;;;;;2.10;2.00;;;20.80;99.90;;;;;;5054855;28;20955;-68
2022/10/08 11:45:31;;;;;;;1.60;1.60;;;20.80;99.90;;;;;;5054633;28;20918;-70
2022/10/08 11:48:00;;;;;;;2.00;1.40;;;20.80;99.90;;;;;;5063494;28;20454;-67
2022/10/08 11:50:30;;;;;;;2.10;1.80;;;20.80;99.90;;;;;;5074669;28;20467;-68
2022/10/08 11:53:01;;;;;;;1.80;1.40;;;20.80;99.90;;;;;;5074377;28;20522;-68
2022/10/08 11:55:32;;;;;;;1.33;1.00;;;20.90;99.90;;;;;;5073499;28;20490;-67
2022/10/08 11:58:01;;;;;;;5.40;2.07;;;20.90;99.90;;;;;;5065383;28;20506;-68
2022/10/08 12:00:40;;;;;;;1.70;1.60;;;20.90;99.90;;;;;;5054293;28;20551;-68
2022/10/08 12:03:21;;;;;;;1.30;1.30;;;20.90;99.90;;;;;;5054124;28;20448;-68
2022/10/08 12:05:52;;;;;;;1.63;1.00;;;20.90;99.90;;;;;;5054193;28;20444;-66
2022/10/08 12:08:51;;;;;;;1.50;1.40;;;20.90;99.90;;;;;;5067919;28;20881;-66
2022/10/08 12:11:45;;;;;;;1.50;1.40;;;20.90;99.90;;;;;;5074250;28;20824;-67
2022/10/08 12:14:46;;;;;;;1.23;1.23;;;20.90;99.90;;;;;;5074010;28;20567;-68
2022/10/08 12:17:13;;;;;;;1.60;1.50;;;20.90;99.90;;;;;;5069455;28;20448;-68
2022/10/08 12:20:22;;;;;;;4.13;1.47;;;20.90;99.90;;;;;;5054072;28;20809;-67
2022/10/08 12:23:07;;;;;;;1.93;1.30;;;20.90;99.90;;;;;;5053846;28;20546;-67
2022/10/08 12:25:40;;;;;;;1.40;1.30;;;20.90;99.90;;;;;;5054216;28;20467;-68
2022/10/08 12:28:38;;;;;;;1.77;1.20;;;20.90;99.90;;;;;;5054000;28;21008;-68
2022/10/08 12:31:31;;;;;;;1.30;1.30;;;20.90;99.90;;;;;;5054018;28;20468;-66
2022/10/08 12:34:01;;;;;;;1.23;1.10;;;20.90;99.90;;;;;;5051450;28;20490;-66
2022/10/08 12:36:48;;;;;;;1.73;1.40;;;20.90;99.90;;;;;;5054258;28;20546;-66
2022/10/08 12:39:27;;;;;;;2.73;1.60;;;20.90;99.90;;;;;;5056567;28;20449;-66
2022/10/08 12:42:03;;;;;;;2.23;1.17;;;20.90;99.90;;;;;;5074169;28;20530;-67
2022/10/08 12:44:43;;;;;;;1.47;0.97;;;20.90;99.90;;;;;;5073894;28;20956;-67
2022/10/08 12:47:20;;;;;;;1.70;1.00;;;20.90;99.90;;;;;;5071347;28;20526;-65
2022/10/08 12:49:52;;;;;;;1.10;1.10;;;20.90;99.90;;;;;;5053483;28;21024;-66
2022/10/08 12:52:21;;;;;;;0.90;0.90;;;20.90;99.90;;;;;;5053269;28;20882;-66
2022/10/08 12:54:51;;;;;;;1.23;1.13;;;20.90;99.90;;;;;;5053166;28;20567;-68
2022/10/08 12:57:22;;;;;;;1.30;1.20;;;20.90;99.90;;;;;;5053511;28;20930;-68
2022/10/08 12:59:49;;;;;;;1.20;1.20;;;20.90;99.90;;;;;;5054525;28;21074;-71
2022/10/08 13:02:36;;;;;;;1.73;1.63;;;21.00;99.90;;;;;;5053039;28;20459;-66
2022/10/08 13:05:04;;;;;;;1.00;1.00;;;21.00;99.90;;;;;;5053468;28;21014;-70
2022/10/08 13:07:35;;;;;;;1.00;1.00;;;21.00;99.90;;;;;;5052115;28;20989;-69
2022/10/08 13:10:16;;;;;;;1.40;1.30;;;21.00;99.90;;;;;;5053044;28;20576;-69